Time;durP1;ratioP1;P1;durP2;ratioP2;P2;SDS_P1;SDS_P2;PMS_P1;PMS_P2;Temp;Humidity;BMP_temperature;BMP_pressure;BME280_temperature;BME280_humidity;BME280_pressure;Samples;Min_cycle;Max_cycle;Signal;HPM_P1;HPM_P2
2023/07/24 00:01:18;;;;;;;6.75;4.63;;;;;;;24.34;46.72;98595.72;5066266;28;20048;-69
2023/07/24 00:03:45;;;;;;;7.90;5.82;;;;;;;24.43;46.77;98621.66;5066096;28;20048;-68
2023/07/24 00:06:12;;;;;;;21.98;14.18;;;;;;;24.44;46.32;98617.09;5066672;28;20178;-69
2023/07/24 00:08:40;;;;;;;18.45;12.88;;;;;;;24.44;46.17;98626.06;5066280;28;20053;-69
2023/07/24 00:11:08;;;;;;;20.05;13.90;;;;;;;24.46;45.84;98615.88;5048557;28;20288;-69
2023/07/24 00:13:35;;;;;;;14.18;10.80;;;;;;;24.26;45.91;98583.16;5066190;28;20108;-69
2023/07/24 00:16:01;;;;;;;10.52;7.90;;;;;;;24.41;45.68;98620.19;5066149;28;20086;-69
2023/07/24 00:18:28;;;;;;;10.73;8.27;;;;;;;24.44;45.81;98619.78;5066128;28;20075;-70
2023/07/24 00:20:55;;;;;;;16.85;12.30;;;;;;;24.42;45.44;98621.84;5066324;28;20048;-69
2023/07/24 00:23:22;;;;;;;21.90;15.85;;;;;;;24.42;45.41;98614.56;5065763;28;20260;-69
2023/07/24 00:25:50;;;;;;;24.88;19.15;;;;;;;24.39;45.41;98612.25;5065785;28;20041;-69
2023/07/24 00:28:16;;;;;;;16.33;12.43;;;;;;;24.37;45.37;98614.31;5066017;28;20106;-70
2023/07/24 00:30:43;;;;;;;14.02;10.55;;;;;;;24.40;45.43;98608.50;5065903;28;20041;-68
2023/07/24 00:33:10;;;;;;;12.02;9.45;;;;;;;24.43;45.05;98601.88;5066181;28;20063;-69
2023/07/24 00:35:37;;;;;;;9.23;6.97;;;;;;;24.40;45.20;98599.53;5048485;28;20053;-68
2023/07/24 00:38:03;;;;;;;9.50;5.97;;;;;;;24.37;45.25;98608.06;5065820;28;20049;-69
2023/07/24 00:40:30;;;;;;;8.40;6.07;;;;;;;24.26;45.49;98602.09;5047994;28;20079;-69
2023/07/24 00:42:58;;;;;;;8.27;5.75;;;;;;;24.29;45.36;98601.72;5048368;28;20099;-69
2023/07/24 00:45:26;;;;;;;5.93;4.68;;;;;;;24.27;45.57;98590.25;5066177;28;20045;-68
2023/07/24 00:47:52;;;;;;;6.70;4.93;;;;;;;24.30;45.38;98591.72;5065901;28;20045;-69
2023/07/24 00:50:20;;;;;;;7.20;4.90;;;;;;;24.07;45.52;98562.09;5065772;28;20057;-69
2023/07/24 00:52:47;;;;;;;6.22;5.03;;;;;;;23.96;45.48;98555.25;5065776;28;20040;-68
2023/07/24 00:55:16;;;;;;;5.80;4.55;;;;;;;24.13;45.65;98574.03;5065767;28;20032;-69
2023/07/24 00:57:43;;;;;;;6.60;4.95;;;;;;;24.22;45.95;98589.13;5065705;28;20052;-68
2023/07/24 01:00:13;;;;;;;8.10;5.45;;;;;;;24.14;46.02;98592.78;5048744;28;20051;-68
2023/07/24 01:02:40;;;;;;;7.60;5.32;;;;;;;24.19;46.42;98593.06;5065298;28;20048;-68
2023/07/24 01:05:08;;;;;;;6.65;4.68;;;;;;;24.19;46.28;98593.06;5065084;28;20363;-68
2023/07/24 01:07:35;;;;;;;6.57;5.22;;;;;;;24.15;46.50;98588.22;5065531;28;20087;-68
2023/07/24 01:10:02;;;;;;;6.78;4.97;;;;;;;24.13;46.77;98590.25;5065256;28;20182;-69
2023/07/24 01:12:36;;;;;;;6.28;4.97;;;;;;;24.13;46.74;98596.53;5065329;28;20181;-68
2023/07/24 01:15:11;;;;;;;6.68;5.28;;;;;;;24.13;47.02;98596.53;5048666;28;20041;-69
2023/07/24 01:17:43;;;;;;;7.55;5.15;;;;;;;24.08;47.28;98588.13;5065489;28;20060;-68
2023/07/24 01:20:12;;;;;;;7.25;5.18;;;;;;;24.09;47.43;98583.56;5065763;28;20201;-68
2023/07/24 01:22:44;;;;;;;6.18;5.07;;;;;;;24.08;47.74;98582.72;5065707;28;20052;-68
2023/07/24 01:25:15;;;;;;;6.20;4.78;;;;;;;24.00;47.95;98583.66;5065213;28;20041;-68
2023/07/24 01:27:45;;;;;;;7.68;6.65;;;;;;;24.04;47.89;98584.13;5048309;28;20292;-68
2023/07/24 01:30:12;;;;;;;7.47;5.60;;;;;;;24.00;47.99;98582.81;5065323;28;20041;-70
2023/07/24 01:32:40;;;;;;;7.50;5.40;;;;;;;23.58;47.88;98516.69;5065436;28;20056;-68
2023/07/24 01:35:07;;;;;;;6.93;5.50;;;;;;;23.49;48.06;98504.28;5065367;28;20049;-68
2023/07/24 01:37:39;;;;;;;14.82;11.52;;;;;;;23.73;47.90;98551.84;5065949;28;20197;-68
2023/07/24 01:40:08;;;;;;;10.85;8.10;;;;;;;23.82;48.09;98566.09;5069376;28;20052;-69
2023/07/24 01:42:36;;;;;;;8.38;6.65;;;;;;;23.83;48.13;98570.50;5069046;28;20095;-69
2023/07/24 01:45:06;;;;;;;10.98;6.38;;;;;;;23.65;48.61;98574.41;5069214;28;20037;-68
2023/07/24 01:47:33;;;;;;;7.95;5.45;;;;;;;23.30;49.07;98557.06;5069211;28;20048;-69
2023/07/24 01:50:00;;;;;;;6.60;5.35;;;;;;;23.41;49.03;98571.16;5052139;28;20044;-69
2023/07/24 01:52:27;;;;;;;7.22;5.30;;;;;;;23.36;49.33;98575.25;5069078;28;20045;-68
2023/07/24 01:54:53;;;;;;;7.03;5.43;;;;;;;23.59;48.64;98567.03;5051331;28;20044;-68
2023/07/24 01:57:20;;;;;;;6.22;5.15;;;;;;;23.62;48.51;98577.50;5069285;28;20053;-68
2023/07/24 01:59:48;;;;;;;5.80;4.40;;;;;;;23.61;48.42;98574.97;5051272;28;20079;-68
2023/07/24 02:02:16;;;;;;;6.50;5.45;;;;;;;23.58;48.59;98575.34;5069208;28;20040;-69
2023/07/24 02:04:43;;;;;;;7.53;5.53;;;;;;;23.53;48.92;98569.66;5069362;28;20049;-68
2023/07/24 02:07:10;;;;;;;6.40;4.97;;;;;;;23.33;48.68;98543.16;5068864;28;20064;-69
2023/07/24 02:09:36;;;;;;;7.47;5.20;;;;;;;23.47;48.85;98556.88;5068830;28;20044;-68
2023/07/24 02:12:04;;;;;;;7.07;5.00;;;;;;;23.29;49.35;98565.34;5068532;28;20209;-68
2023/07/24 02:14:30;;;;;;;6.78;4.85;;;;;;;22.96;49.74;98535.06;5069000;28;20308;-69
2023/07/24 02:16:57;;;;;;;6.97;5.07;;;;;;;23.22;49.83;98561.69;5068426;28;20086;-69
2023/07/24 02:19:25;;;;;;;6.53;4.78;;;;;;;23.28;49.53;98564.50;5068375;28;20309;-69
2023/07/24 02:21:52;;;;;;;6.60;5.53;;;;;;;23.35;49.27;98557.34;5068860;28;20045;-69
2023/07/24 02:24:19;;;;;;;6.65;5.50;;;;;;;23.40;49.11;98555.94;5068232;28;20049;-69
2023/07/24 02:26:45;;;;;;;6.72;5.00;;;;;;;23.29;49.43;98560.78;5068491;28;20060;-69
2023/07/24 02:29:12;;;;;;;5.72;4.53;;;;;;;23.29;49.38;98555.38;5068123;28;20071;-69
2023/07/24 02:31:39;;;;;;;6.03;4.63;;;;;;;23.26;49.53;98555.75;5068107;28;20044;-69
2023/07/24 02:34:05;;;;;;;6.32;4.63;;;;;;;23.26;49.75;98554.88;5068094;28;20049;-69
2023/07/24 02:36:33;;;;;;;7.05;5.57;;;;;;;23.24;49.84;98549.66;5068300;28;20102;-69
2023/07/24 02:39:00;;;;;;;6.20;5.00;;;;;;;22.97;49.73;98505.16;5068204;28;20083;-69
2023/07/24 02:41:27;;;;;;;7.53;5.05;;;;;;;23.30;49.34;98540.84;5068050;28;20052;-69
2023/07/24 02:43:53;;;;;;;6.18;5.32;;;;;;;23.23;49.58;98547.97;5068368;28;20297;-69
2023/07/24 02:46:20;;;;;;;7.15;5.25;;;;;;;23.04;49.89;98538.53;5068059;28;20049;-69
2023/07/24 02:48:47;;;;;;;6.38;5.03;;;;;;;22.99;50.04;98548.22;5049438;28;20102;-69
2023/07/24 02:51:13;;;;;;;5.97;5.13;;;;;;;23.03;49.97;98549.53;5067688;28;20044;-68
2023/07/24 02:53:41;;;;;;;6.80;4.88;;;;;;;23.06;49.87;98554.56;5050180;28;20060;-69
2023/07/24 02:56:08;;;;;;;6.03;4.78;;;;;;;22.81;50.39;98547.69;5067684;28;20048;-69
2023/07/24 02:58:35;;;;;;;7.22;5.43;;;;;;;22.78;50.26;98542.66;5068185;28;20063;-69
2023/07/24 03:01:06;;;;;;;6.63;4.60;;;;;;;22.68;50.42;98538.34;5067767;28;20060;-69
2023/07/24 03:03:33;;;;;;;8.50;5.45;;;;;;;21.70;50.43;98380.78;5067907;28;20053;-68
2023/07/24 03:05:59;;;;;;;6.15;4.82;;;;;;;22.51;50.45;98515.16;5067981;28;20048;-69
2023/07/24 03:08:26;;;;;;;8.48;5.43;;;;;;;22.77;50.34;98532.88;5067466;28;20071;-69
2023/07/24 03:10:54;;;;;;;6.38;5.25;;;;;;;22.84;50.29;98528.44;5067667;28;20296;-68
2023/07/24 03:13:21;;;;;;;6.32;4.97;;;;;;;22.82;50.25;98535.88;5049914;28;20056;-69
2023/07/24 03:15:54;;;;;;;6.60;5.32;;;;;;;22.39;50.63;98467.97;5067613;28;20044;-69
2023/07/24 03:18:21;;;;;;;6.82;5.47;;;;;;;22.80;50.48;98524.41;5049778;28;20190;-69
2023/07/24 03:20:47;;;;;;;7.22;4.68;;;;;;;22.73;50.69;98529.69;5067513;28;20091;-69
2023/07/24 03:23:14;;;;;;;7.05;5.32;;;;;;;22.73;50.94;98527.00;5067365;28;20060;-69
2023/07/24 03:25:41;;;;;;;6.63;4.88;;;;;;;22.71;50.78;98529.88;5067113;28;20052;-69
2023/07/24 03:28:09;;;;;;;7.57;5.57;;;;;;;22.47;51.21;98489.56;5067600;28;20040;-69
2023/07/24 03:30:36;;;;;;;8.82;6.18;;;;;;;22.62;51.47;98511.22;5066992;28;20049;-69
2023/07/24 03:33:03;;;;;;;6.80;5.22;;;;;;;22.68;51.46;98515.91;5067145;28;20098;-69
2023/07/24 03:35:30;;;;;;;6.53;4.97;;;;;;;22.68;51.76;98513.19;5049984;28;20036;-69
2023/07/24 03:37:57;;;;;;;6.90;5.47;;;;;;;22.71;51.41;98512.84;5049374;28;20041;-69
2023/07/24 03:40:23;;;;;;;7.20;5.32;;;;;;;22.70;51.32;98511.16;5066965;28;20053;-70
2023/07/24 03:42:50;;;;;;;8.23;6.38;;;;;;;22.73;51.22;98508.94;5067292;28;20041;-69
2023/07/24 03:45:18;;;;;;;7.10;5.30;;;;;;;22.72;51.42;98509.13;5066623;28;20205;-69
2023/07/24 03:47:45;;;;;;;9.60;6.75;;;;;;;22.68;51.31;98513.19;5049625;28;20052;-70
2023/07/24 03:50:12;;;;;;;8.90;7.07;;;;;;;22.58;51.22;98486.44;5066942;28;20045;-69
2023/07/24 03:52:38;;;;;;;7.65;6.18;;;;;;;22.70;51.21;98509.31;5049138;28;20111;-69
2023/07/24 03:55:07;;;;;;;8.52;5.70;;;;;;;22.71;51.61;98516.38;5066864;28;20075;-70
2023/07/24 03:57:34;;;;;;;11.15;6.22;;;;;;;22.76;51.11;98515.00;5066544;28;20108;-70
2023/07/24 04:00:01;;;;;;;8.15;6.05;;;;;;;22.66;51.25;98524.19;5066847;28;20045;-69
2023/07/24 04:02:29;;;;;;;7.32;5.50;;;;;;;22.63;51.67;98521.00;5066612;28;20095;-69
2023/07/24 04:04:56;;;;;;;8.70;5.55;;;;;;;22.65;51.86;98527.06;5066270;28;20037;-69
2023/07/24 04:07:22;;;;;;;8.35;5.45;;;;;;;22.69;51.53;98520.28;5066544;28;20045;-70
2023/07/24 04:09:49;;;;;;;9.80;5.72;;;;;;;22.63;52.07;98529.94;5066788;28;20063;-69
2023/07/24 04:12:16;;;;;;;8.85;6.30;;;;;;;22.69;51.74;98528.38;5066845;28;20244;-69
2023/07/24 04:14:42;;;;;;;6.30;5.25;;;;;;;22.70;52.45;98527.38;5065862;28;20055;-70
2023/07/24 04:17:09;;;;;;;10.43;6.20;;;;;;;22.67;52.08;98522.31;5066643;28;20053;-69
2023/07/24 04:19:37;;;;;;;7.50;5.75;;;;;;;22.68;52.16;98513.19;5066635;28;20048;-69
2023/07/24 04:22:04;;;;;;;9.38;5.57;;;;;;;22.54;52.10;98484.25;5066286;28;20189;-69
2023/07/24 04:24:31;;;;;;;8.85;6.10;;;;;;;22.50;51.49;98489.19;5065759;28;20060;-70
2023/07/24 04:26:57;;;;;;;9.45;5.82;;;;;;;22.62;52.10;98512.06;5065950;28;20040;-69
2023/07/24 04:29:25;;;;;;;7.03;5.93;;;;;;;22.63;51.98;98508.34;5048426;28;20049;-69
2023/07/24 04:31:52;;;;;;;7.68;5.80;;;;;;;22.61;52.65;98521.19;5048361;28;20041;-69
2023/07/24 04:34:19;;;;;;;8.10;6.18;;;;;;;22.60;52.89;98522.22;5049134;28;20045;-69
2023/07/24 04:36:47;;;;;;;7.32;5.65;;;;;;;22.63;52.65;98519.16;5066224;28;20045;-69
2023/07/24 04:39:14;;;;;;;8.70;6.13;;;;;;;22.59;53.08;98511.59;5048879;28;20212;-69
2023/07/24 04:41:41;;;;;;;8.55;5.70;;;;;;;22.63;53.57;98511.03;5065656;28;20048;-69
2023/07/24 04:44:07;;;;;;;9.13;5.85;;;;;;;22.67;54.19;98514.22;5048089;28;20041;-69
2023/07/24 04:46:34;;;;;;;8.05;6.50;;;;;;;22.47;55.10;98489.56;5048069;28;20048;-69
2023/07/24 04:49:01;;;;;;;8.45;6.70;;;;;;;22.65;56.11;98522.50;5065869;28;20046;-69
2023/07/24 04:51:27;;;;;;;10.73;7.07;;;;;;;22.57;56.41;98500.97;5065602;28;20056;-70
2023/07/24 04:53:56;;;;;;;8.02;6.15;;;;;;;22.75;56.41;98514.16;5065495;28;20063;-70
2023/07/24 04:56:22;;;;;;;8.85;5.45;;;;;;;22.75;57.44;98514.16;5065696;28;20044;-70
2023/07/24 04:58:49;;;;;;;7.63;6.05;;;;;;;22.78;57.71;98511.09;5065763;28;20053;-69
2023/07/24 05:01:16;;;;;;;11.68;7.45;;;;;;;22.86;57.73;98507.47;5048001;28;20041;-70
2023/07/24 05:03:42;;;;;;;14.68;6.97;;;;;;;22.87;58.19;98499.19;5047870;28;20041;-69
2023/07/24 05:06:09;;;;;;;8.88;6.47;;;;;;;22.90;58.53;98506.09;5065351;28;20091;-69
2023/07/24 05:08:36;;;;;;;9.63;6.82;;;;;;;22.81;58.33;98512.59;5047929;28;20040;-69
2023/07/24 05:11:04;;;;;;;9.27;6.68;;;;;;;22.80;58.65;98508.19;5065500;28;20285;-69
2023/07/24 05:13:31;;;;;;;9.13;6.55;;;;;;;22.93;57.86;98521.94;5065123;28;20045;-69
2023/07/24 05:15:57;;;;;;;8.45;7.05;;;;;;;22.98;57.82;98509.53;5065240;28;20044;-69
2023/07/24 05:18:24;;;;;;;8.45;7.13;;;;;;;22.75;58.01;98480.91;5065868;28;20083;-69
2023/07/24 05:20:52;;;;;;;10.32;7.45;;;;;;;22.73;57.30;98471.13;5065559;28;20295;-69
2023/07/24 05:23:18;;;;;;;10.05;7.30;;;;;;;22.90;56.79;98484.47;5048283;28;20049;-69
2023/07/24 05:25:45;;;;;;;11.25;6.80;;;;;;;23.03;56.80;98517.09;5065612;28;20045;-69
2023/07/24 05:28:13;;;;;;;9.43;7.07;;;;;;;23.03;55.38;98517.09;5065228;28;20044;-70
2023/07/24 05:30:40;;;;;;;12.85;8.77;;;;;;;22.78;54.20;98491.34;5031351;28;20045;-69
2023/07/24 05:33:07;;;;;;;9.57;7.35;;;;;;;22.96;54.19;98513.44;5048549;28;20091;-70
2023/07/24 05:35:33;;;;;;;12.32;8.13;;;;;;;22.94;53.65;98524.44;5065412;28;20231;-69
2023/07/24 05:38:00;;;;;;;9.77;7.43;;;;;;;22.92;53.02;98517.53;5065249;28;20212;-69
2023/07/24 05:40:28;;;;;;;9.77;7.03;;;;;;;22.93;53.01;98522.75;5047602;28;20231;-70
2023/07/24 05:42:55;;;;;;;10.65;7.22;;;;;;;22.80;52.25;98516.31;5065019;28;20037;-70
2023/07/24 05:45:23;;;;;;;8.57;6.85;;;;;;;22.79;52.01;98515.47;5065088;28;20045;-70
2023/07/24 05:47:50;;;;;;;9.38;6.75;;;;;;;22.79;52.06;98518.16;5064972;28;20045;-69
2023/07/24 05:50:17;;;;;;;10.10;7.47;;;;;;;22.85;52.08;98511.19;5064907;28;20228;-70
2023/07/24 05:52:44;;;;;;;9.70;6.97;;;;;;;22.94;52.22;98504.69;5065198;28;20228;-70
2023/07/24 05:55:10;;;;;;;9.02;7.13;;;;;;;22.87;51.50;98515.41;5064690;28;20049;-69
2023/07/24 05:57:37;;;;;;;9.50;6.82;;;;;;;22.81;51.00;98507.19;5048378;28;20045;-69
2023/07/24 06:00:05;;;;;;;10.52;7.05;;;;;;;22.92;50.99;98512.13;5065499;28;20049;-70
2023/07/24 06:02:33;;;;;;;8.20;5.90;;;;;;;22.99;50.93;98510.38;5064841;28;20103;-69
2023/07/24 06:05:00;;;;;;;8.55;6.40;;;;;;;22.97;50.02;98498.91;5064828;28;20289;-69
2023/07/24 06:07:26;;;;;;;8.25;6.95;;;;;;;22.44;49.73;98417.00;5065364;28;20052;-69
2023/07/24 06:09:53;;;;;;;9.32;7.22;;;;;;;22.78;49.79;98475.13;5064826;28;20094;-69
2023/07/24 06:12:20;;;;;;;10.05;7.18;;;;;;;22.82;50.25;98493.50;5064997;28;20045;-69
2023/07/24 06:14:46;;;;;;;10.57;7.25;;;;;;;22.93;50.40;98484.94;5047834;28;20049;-69
2023/07/24 06:17:13;;;;;;;10.75;6.70;;;;;;;23.00;50.70;98485.88;5064945;28;20040;-69
2023/07/24 06:19:41;;;;;;;8.25;6.90;;;;;;;23.04;50.93;98492.59;5047693;28;20047;-68
2023/07/24 06:22:08;;;;;;;9.10;7.05;;;;;;;23.09;51.02;98483.09;5064957;28;20323;-69
2023/07/24 06:24:35;;;;;;;11.20;7.00;;;;;;;23.11;51.12;98479.19;5066922;28;20049;-69
2023/07/24 06:27:02;;;;;;;9.75;7.07;;;;;;;23.15;51.00;98475.09;5068436;28;20044;-69
2023/07/24 06:29:28;;;;;;;9.57;6.45;;;;;;;22.98;51.19;98441.16;5050628;28;20232;-70
2023/07/24 06:31:55;;;;;;;10.88;7.50;;;;;;;23.03;51.52;98438.72;5068039;28;20095;-69
2023/07/24 06:34:22;;;;;;;10.00;6.88;;;;;;;23.22;51.34;98461.66;5068154;28;20053;-69
2023/07/24 06:36:51;;;;;;;10.82;7.35;;;;;;;23.20;51.35;98467.25;5068212;28;20053;-70
2023/07/24 06:39:18;;;;;;;7.75;6.43;;;;;;;23.24;51.04;98465.84;5067937;28;20108;-69
2023/07/24 06:41:45;;;;;;;9.80;7.13;;;;;;;23.35;50.73;98465.41;5068199;28;20044;-69
2023/07/24 06:44:12;;;;;;;12.35;6.60;;;;;;;23.37;50.80;98454.41;5068275;28;20103;-69
2023/07/24 06:46:39;;;;;;;10.38;6.88;;;;;;;23.46;50.36;98457.84;5067910;28;20040;-69
2023/07/24 06:49:06;;;;;;;7.00;6.20;;;;;;;23.54;50.59;98461.28;5067774;28;20127;-69
2023/07/24 06:51:32;;;;;;;9.30;6.68;;;;;;;23.39;50.02;98430.72;5067890;28;20075;-70
2023/07/24 06:54:00;;;;;;;11.60;6.85;;;;;;;23.66;49.92;98458.94;5068208;28;20191;-70
2023/07/24 06:56:27;;;;;;;10.07;6.97;;;;;;;23.81;49.93;98457.03;5067998;28;20196;-70
2023/07/24 06:58:54;;;;;;;12.07;7.15;;;;;;;23.59;49.87;98398.53;5068119;28;20063;-70
2023/07/24 07:01:21;;;;;;;10.50;7.13;;;;;;;24.09;49.33;98438.22;5067542;28;20041;-70
2023/07/24 07:03:47;;;;;;;9.38;7.28;;;;;;;24.21;49.27;98442.09;5050069;28;20090;-70
2023/07/24 07:06:14;;;;;;;9.85;7.05;;;;;;;24.33;49.25;98427.00;5067621;28;20099;-70
2023/07/24 07:08:40;;;;;;;8.88;6.65;;;;;;;24.51;47.93;98414.88;5067682;28;20049;-70
2023/07/24 07:11:09;;;;;;;8.60;7.30;;;;;;;24.61;48.17;98410.78;5068129;28;20045;-70
2023/07/24 07:13:35;;;;;;;9.38;7.35;;;;;;;24.82;47.97;98419.91;5067557;28;20056;-70
2023/07/24 07:16:02;;;;;;;14.45;7.03;;;;;;;25.01;47.76;98413.81;5067812;28;20028;-71
2023/07/24 07:18:29;;;;;;;8.77;6.70;;;;;;;25.22;47.48;98413.72;5067780;28;20055;-70
2023/07/24 07:20:55;;;;;;;13.93;8.20;;;;;;;25.43;47.80;98410.09;5067680;28;20115;-70
2023/07/24 07:23:22;;;;;;;11.32;7.50;;;;;;;25.34;47.47;98395.03;5033161;28;20044;-70
2023/07/24 07:25:50;;;;;;;8.82;6.93;;;;;;;25.53;47.59;98415.16;5049644;28;20052;-70
2023/07/24 07:28:18;;;;;;;10.68;7.40;;;;;;;25.72;47.73;98427.97;5049564;28;20076;-71
2023/07/24 07:30:46;;;;;;;9.82;7.45;;;;;;;25.26;47.75;98319.25;5066838;28;20055;-69
2023/07/24 07:33:13;;;;;;;11.13;6.82;;;;;;;25.91;48.39;98408.19;5049393;28;20037;-70
2023/07/24 07:35:40;;;;;;;11.90;7.47;;;;;;;25.69;48.41;98371.38;5066337;28;20049;-70
2023/07/24 07:38:06;;;;;;;10.68;7.18;;;;;;;26.06;48.96;98388.19;5066712;28;20041;-70
2023/07/24 07:40:33;;;;;;;8.90;6.70;;;;;;;25.82;48.83;98359.72;5067052;28;20236;-70
2023/07/24 07:43:00;;;;;;;11.30;7.50;;;;;;;26.21;49.11;98395.09;5066760;28;20362;-70
2023/07/24 07:45:28;;;;;;;10.63;7.20;;;;;;;26.42;49.44;98390.50;5049789;28;20303;-71
2023/07/24 07:47:56;;;;;;;9.88;6.63;;;;;;;26.30;50.41;98379.44;5049415;28;20057;-70
2023/07/24 07:50:24;;;;;;;10.93;7.13;;;;;;;26.57;50.12;98387.56;5067063;28;20049;-71
2023/07/24 07:52:51;;;;;;;11.88;7.22;;;;;;;26.19;50.80;98332.00;5049838;28;20037;-70
2023/07/24 07:55:18;;;;;;;11.82;6.88;;;;;;;26.78;49.99;98376.50;5066739;28;20108;-70
2023/07/24 07:57:45;;;;;;;14.27;7.82;;;;;;;26.91;50.75;98368.31;5066923;28;20053;-71
2023/07/24 08:00:13;;;;;;;10.43;6.88;;;;;;;26.14;50.53;98249.50;5049706;28;20192;-70
2023/07/24 08:02:41;;;;;;;8.43;7.03;;;;;;;26.92;50.97;98359.13;5066630;28;20041;-69
2023/07/24 08:05:09;;;;;;;12.30;6.45;;;;;;;27.07;49.97;98359.69;5048884;28;20216;-70
2023/07/24 08:07:36;;;;;;;8.63;6.57;;;;;;;27.06;48.59;98362.63;5066953;28;20044;-70
2023/07/24 08:10:03;;;;;;;12.98;6.75;;;;;;;27.30;47.86;98355.66;5066585;28;20102;-70
2023/07/24 08:12:29;;;;;;;8.68;6.57;;;;;;;27.52;48.27;98353.47;5066367;28;20045;-70
2023/07/24 08:14:57;;;;;;;8.52;6.97;;;;;;;27.57;48.64;98351.78;5048662;28;20064;-69
2023/07/24 08:17:23;;;;;;;7.90;6.63;;;;;;;27.39;47.28;98317.13;5066017;28;20036;-69
2023/07/24 08:19:52;;;;;;;8.98;6.53;;;;;;;27.49;47.56;98350.13;5066476;28;20049;-68
2023/07/24 08:22:19;;;;;;;10.13;6.35;;;;;;;27.39;46.07;98338.88;5065996;28;20041;-68
2023/07/24 08:24:46;;;;;;;9.45;6.28;;;;;;;27.14;46.14;98349.63;5065703;28;20053;-68
2023/07/24 08:27:13;;;;;;;10.10;6.40;;;;;;;27.50;45.30;98331.91;5048355;28;20350;-68
2023/07/24 08:29:40;;;;;;;13.38;7.38;;;;;;;27.69;44.74;98328.28;5065926;28;20351;-69
2023/07/24 08:32:07;;;;;;;12.68;6.60;;;;;;;27.68;45.46;98328.50;5065980;28;20045;-69
2023/07/24 08:34:34;;;;;;;11.50;6.88;;;;;;;27.95;45.93;98329.19;5066223;28;20048;-68
2023/07/24 08:37:03;;;;;;;8.40;6.65;;;;;;;28.01;45.15;98320.97;5048230;28;20083;-70
2023/07/24 08:39:31;;;;;;;9.82;5.95;;;;;;;27.96;45.37;98326.25;5065904;28;20041;-69
2023/07/24 08:41:58;;;;;;;11.25;6.28;;;;;;;28.01;45.36;98304.63;5048186;28;20040;-69
2023/07/24 08:44:30;;;;;;;9.00;6.55;;;;;;;28.16;45.32;98304.31;5065773;28;20055;-69
2023/07/24 08:46:58;;;;;;;9.40;7.07;;;;;;;28.32;45.42;98314.63;5064432;28;20041;-70
2023/07/24 08:49:26;;;;;;;10.60;6.70;;;;;;;28.58;45.44;98318.19;5048028;28;20235;-70
2023/07/24 08:51:54;;;;;;;8.25;6.63;;;;;;;28.64;44.88;98329.03;5065757;28;20048;-70
2023/07/24 08:54:24;;;;;;;8.50;6.47;;;;;;;28.72;44.38;98319.72;5065714;28;20056;-69
2023/07/24 08:56:52;;;;;;;8.25;6.28;;;;;;;28.74;44.24;98314.88;5065503;28;20094;-68
2023/07/24 08:59:19;;;;;;;13.38;7.55;;;;;;;28.89;43.56;98309.88;5065629;28;20064;-69
2023/07/24 09:01:45;;;;;;;8.38;6.47;;;;;;;29.17;43.74;98311.25;5065011;28;20301;-69
2023/07/24 09:04:12;;;;;;;7.45;6.20;;;;;;;28.75;43.26;98292.84;5048598;28;20049;-70
2023/07/24 09:06:39;;;;;;;9.73;6.60;;;;;;;28.94;43.42;98298.28;5065555;28;20067;-68
2023/07/24 09:09:14;;;;;;;6.93;5.88;;;;;;;29.25;42.82;98300.88;5065624;28;20108;-69
2023/07/24 09:11:48;;;;;;;10.63;6.43;;;;;;;29.12;43.04;98297.47;5065462;28;20052;-70
2023/07/24 09:14:22;;;;;;;10.30;6.63;;;;;;;29.61;43.01;98296.41;5065803;28;20041;-70
2023/07/24 09:16:48;;;;;;;8.70;5.90;;;;;;;29.36;42.44;98271.97;5048365;28;20190;-70
2023/07/24 09:19:18;;;;;;;8.38;7.25;;;;;;;29.15;41.78;98190.63;5065342;28;20041;-71
2023/07/24 09:21:45;;;;;;;7.05;5.57;;;;;;;29.91;41.17;98283.56;5048348;28;20036;-71
2023/07/24 09:24:13;;;;;;;8.55;6.47;;;;;;;29.98;41.26;98248.78;5065005;28;20065;-71
2023/07/24 09:26:53;;;;;;;8.93;6.75;;;;;;;30.33;41.03;98272.63;5064974;28;20416;-71
2023/07/24 09:29:21;;;;;;;6.60;5.38;;;;;;;30.34;40.48;98285.22;5031281;28;20083;-71
2023/07/24 09:31:48;;;;;;;9.50;6.03;;;;;;;30.10;39.29;98275.28;5065321;28;20051;-70
2023/07/24 09:34:16;;;;;;;9.15;5.95;;;;;;;30.03;38.09;98273.50;5065247;28;20041;-70
2023/07/24 09:36:44;;;;;;;8.23;6.70;;;;;;;30.21;38.01;98261.69;5047897;28;20285;-71
2023/07/24 09:39:11;;;;;;;7.35;5.95;;;;;;;30.18;37.49;98242.16;5065198;28;20052;-71
2023/07/24 09:41:38;;;;;;;8.48;6.28;;;;;;;30.48;37.63;98255.72;5064954;28;20040;-71
2023/07/24 09:44:06;;;;;;;7.78;6.18;;;;;;;30.28;37.72;98229.59;5065028;28;20053;-71
2023/07/24 09:46:33;;;;;;;8.35;6.25;;;;;;;30.49;37.51;98246.47;5065034;28;20346;-71
2023/07/24 09:49:00;;;;;;;9.75;6.53;;;;;;;30.58;37.32;98242.28;5065136;28;20293;-70
2023/07/24 09:51:30;;;;;;;7.28;6.15;;;;;;;30.43;37.69;98245.53;5064643;28;20064;-70
2023/07/24 09:54:03;;;;;;;8.20;5.50;;;;;;;30.63;37.53;98235.03;5064788;28;20037;-70
2023/07/24 09:56:32;;;;;;;7.72;6.15;;;;;;;30.51;36.39;98181.44;5047343;28;20041;-71
2023/07/24 09:59:00;;;;;;;7.43;6.00;;;;;;;30.52;37.86;98216.75;5066571;28;20056;-69
2023/07/24 10:01:29;;;;;;;9.98;6.95;;;;;;;30.65;37.21;98221.13;5068899;28;20045;-71
2023/07/24 10:03:56;;;;;;;9.02;7.72;;;;;;;30.62;37.41;98213.41;5051035;28;20051;-72
2023/07/24 10:06:25;;;;;;;9.63;8.63;;;;;;;30.60;37.16;98221.00;5068650;28;20037;-71
2023/07/24 10:08:54;;;;;;;12.50;7.03;;;;;;;30.60;37.52;98212.81;5068669;28;20041;-70
2023/07/24 10:11:22;;;;;;;7.55;5.90;;;;;;;30.65;38.08;98211.00;5050773;28;20120;-70
2023/07/24 10:13:51;;;;;;;7.13;6.00;;;;;;;29.83;37.81;98050.94;5068623;28;20071;-71
2023/07/24 10:16:17;;;;;;;6.95;6.15;;;;;;;30.61;37.92;98168.81;5068849;28;20040;-70
2023/07/24 10:18:47;;;;;;;7.78;6.13;;;;;;;30.92;37.47;98173.03;5068717;28;20044;-70
2023/07/24 10:21:14;;;;;;;7.40;6.18;;;;;;;30.97;36.94;98166.81;5068451;28;20044;-71
2023/07/24 10:23:43;;;;;;;9.55;7.40;;;;;;;30.46;37.31;98119.28;5050690;28;20208;-70
2023/07/24 10:26:11;;;;;;;8.98;5.63;;;;;;;30.96;36.68;98165.16;5068035;28;20113;-70
2023/07/24 10:28:39;;;;;;;6.70;6.00;;;;;;;31.31;36.17;98159.53;5068259;28;20354;-71
2023/07/24 10:31:08;;;;;;;8.32;6.30;;;;;;;31.24;35.87;98156.97;5068164;28;20041;-70
2023/07/24 10:33:38;;;;;;;6.95;5.88;;;;;;;31.10;36.41;98152.00;5067846;28;20102;-70
2023/07/24 10:36:09;;;;;;;7.38;6.20;;;;;;;31.03;36.31;98124.81;5068258;28;20104;-70
2023/07/24 10:38:38;;;;;;;9.85;7.43;;;;;;;31.28;35.68;98130.75;5068120;28;20053;-71
2023/07/24 10:41:07;;;;;;;8.05;6.07;;;;;;;31.52;35.35;98122.41;5067819;28;20055;-71
2023/07/24 10:43:42;;;;;;;7.15;6.20;;;;;;;31.51;35.00;98110.63;5051118;28;20176;-71
2023/07/24 10:46:09;;;;;;;7.82;6.70;;;;;;;31.51;34.58;98120.72;5067879;28;20112;-71
2023/07/24 10:48:37;;;;;;;10.90;6.18;;;;;;;31.48;34.77;98089.22;5067846;28;20112;-71
2023/07/24 10:51:09;;;;;;;7.50;5.60;;;;;;;31.73;34.61;98102.47;5067879;28;20041;-71
2023/07/24 10:53:37;;;;;;;9.95;6.85;;;;;;;31.61;34.14;98091.59;5050072;28;20041;-71
2023/07/24 10:56:04;;;;;;;12.77;7.15;;;;;;;31.57;34.46;98093.19;5067843;28;20083;-70
2023/07/24 10:58:31;;;;;;;13.35;6.85;;;;;;;31.20;34.43;98010.72;5067843;28;20045;-71
2023/07/24 11:00:58;;;;;;;7.72;6.65;;;;;;;31.80;34.10;98078.50;5067766;28;20040;-70
2023/07/24 11:03:26;;;;;;;8.57;6.50;;;;;;;31.64;35.08;98064.81;5049793;28;20048;-70
2023/07/24 11:05:53;;;;;;;11.25;6.38;;;;;;;31.30;34.72;98064.81;5049968;28;20079;-70
2023/07/24 11:08:22;;;;;;;7.88;7.05;;;;;;;31.28;34.73;98024.03;5067514;28;20052;-70
2023/07/24 11:10:50;;;;;;;9.05;7.10;;;;;;;31.56;34.24;98027.72;5048891;28;20041;-71
2023/07/24 11:13:18;;;;;;;8.23;7.00;;;;;;;31.86;34.24;98041.88;5067257;28;20403;-71
2023/07/24 11:15:45;;;;;;;8.10;6.95;;;;;;;31.74;35.50;98043.88;5049676;28;20053;-70
2023/07/24 11:18:12;;;;;;;9.88;6.90;;;;;;;31.89;35.53;98041.38;5049848;28;20355;-71
2023/07/24 11:20:44;;;;;;;12.75;7.88;;;;;;;31.85;35.35;98033.91;5050021;28;20232;-71
2023/07/24 11:23:11;;;;;;;10.77;6.88;;;;;;;31.97;35.58;98022.81;5067167;28;20065;-71
2023/07/24 11:25:39;;;;;;;8.93;7.70;;;;;;;32.24;35.26;98027.28;5067589;28;20108;-71
2023/07/24 11:28:06;;;;;;;12.98;7.78;;;;;;;32.21;35.29;98008.59;5067055;28;20044;-71
2023/07/24 11:30:35;;;;;;;11.38;7.57;;;;;;;32.26;35.38;97994.13;5067648;28;20059;-71
2023/07/24 11:33:03;;;;;;;12.13;7.35;;;;;;;32.01;33.91;97991.94;5067129;28;20072;-71